Time;durP1;ratioP1;P1;durP2;ratioP2;P2;SDS_P1;SDS_P2;PMS_P1;PMS_P2;Temp;Humidity;BMP_temperature;BMP_pressure;BME280_temperature;BME280_humidity;BME280_pressure;Samples;Min_cycle;Max_cycle;Signal;HPM_P1;HPM_P2
2021/03/24 00:00:51;;;;;;;22.00;7.78;;;;;;;;;;5066660;28;20040;-59
2021/03/24 00:03:18;;;;;;;19.27;8.85;;;;;;;;;;5065721;28;20036;-58
2021/03/24 00:05:46;;;;;;;18.13;7.75;;;;;;;;;;5066102;28;20370;-58
2021/03/24 00:08:12;;;;;;;20.30;8.43;;;;;;;;;;5065926;28;20044;-58
2021/03/24 00:10:39;;;;;;;15.90;9.00;;;;;;;;;;5066032;28;20036;-58
2021/03/24 00:13:07;;;;;;;14.93;9.65;;;;;;;;;;5066231;28;20396;-58
2021/03/24 00:15:35;;;;;;;19.25;10.23;;;;;;;;;;5068065;28;20135;-58
2021/03/24 00:18:02;;;;;;;;;;;;;;;;;;5067530;28;20037;-58
2021/03/24 00:20:30;;;;;;;20.48;8.50;;;;;;;;;;5070243;28;19928;-58
2021/03/24 00:22:57;;;;;;;15.95;9.48;;;;;;;;;;5067907;28;20381;-58
2021/03/24 00:25:23;;;;;;;18.90;9.23;;;;;;;;;;5067172;28;20116;-58
2021/03/24 00:27:50;;;;;;;18.17;9.53;;;;;;;;;;5042681;28;682870;-58
2021/03/24 00:30:19;;;;;;;19.85;11.13;;;;;;;;;;5067032;28;20092;-58
2021/03/24 00:32:45;;;;;;;22.17;9.70;;;;;;;;;;5066802;28;20041;-58
2021/03/24 00:35:12;;;;;;;18.70;10.83;;;;;;;;;;5067383;28;20037;-59
2021/03/24 00:37:38;;;;;;;23.35;10.15;;;;;;;;;;5065477;28;20501;-58
2021/03/24 00:40:06;;;;;;;19.38;9.90;;;;;;;;;;5066809;28;20403;-58
2021/03/24 00:42:32;;;;;;;20.45;10.00;;;;;;;;;;5065231;28;20064;-58
2021/03/24 00:44:59;;;;;;;18.52;9.30;;;;;;;;;;5066807;28;20045;-57
2021/03/24 00:47:25;;;;;;;20.27;10.43;;;;;;;;;;5067697;28;20052;-59
2021/03/24 00:49:51;;;;;;;14.93;8.50;;;;;;;;;;5067538;28;20045;-58
2021/03/24 00:52:33;;;;;;;17.92;10.88;;;;;;;;;;5065739;28;20052;-57
2021/03/24 00:54:59;;;;;;;21.13;11.13;;;;;;;;;;5068435;28;20055;-58
2021/03/24 00:57:26;;;;;;;18.77;9.45;;;;;;;;;;5064329;28;20052;-58
2021/03/24 00:59:52;;;;;;;19.10;9.60;;;;;;;;;;5065073;28;20040;-59
2021/03/24 01:02:18;;;;;;;22.52;12.35;;;;;;;;;;5064348;28;20036;-58
2021/03/24 01:04:45;;;;;;;24.63;11.23;;;;;;;;;;5066293;28;20447;-58
2021/03/24 01:07:12;;;;;;;21.85;12.40;;;;;;;;;;5065642;28;20098;-58
2021/03/24 01:09:39;;;;;;;25.60;12.32;;;;;;;;;;5064821;28;20480;-58
2021/03/24 01:12:06;;;;;;;31.20;13.27;;;;;;;;;;5067774;28;20054;-59
2021/03/24 01:14:32;;;;;;;27.33;12.50;;;;;;;;;;5065280;28;20291;-58
2021/03/24 01:16:58;;;;;;;32.47;15.18;;;;;;;;;;5065218;28;20037;-59
2021/03/24 01:19:25;;;;;;;25.88;13.18;;;;;;;;;;5066514;28;20041;-59
2021/03/24 01:21:53;;;;;;;26.77;14.55;;;;;;;;;;5065954;28;20036;-59
2021/03/24 01:24:19;;;;;;;29.13;14.27;;;;;;;;;;5062364;28;20060;-58
2021/03/24 01:26:45;;;;;;;29.60;12.20;;;;;;;;;;5065067;28;20421;-58
2021/03/24 01:29:11;;;;;;;24.83;12.80;;;;;;;;;;5064882;28;20051;-58
2021/03/24 01:31:38;;;;;;;35.30;15.77;;;;;;;;;;5068233;28;20545;-58
2021/03/24 01:34:04;;;;;;;28.17;14.60;;;;;;;;;;5064999;28;20540;-58
2021/03/24 01:36:30;;;;;;;30.30;15.30;;;;;;;;;;5066540;28;20112;-58
2021/03/24 01:38:57;;;;;;;34.20;16.20;;;;;;;;;;5066725;28;20044;-58
2021/03/24 01:41:24;;;;;;;36.13;17.42;;;;;;;;;;5068191;28;20048;-58
2021/03/24 01:43:50;;;;;;;31.60;14.98;;;;;;;;;;5065310;28;20118;-58
2021/03/24 01:46:20;;;;;;;35.13;16.17;;;;;;;;;;5064687;28;20052;-58
2021/03/24 01:48:58;;;;;;;39.53;16.73;;;;;;;;;;5067175;28;20052;-59
2021/03/24 01:51:27;;;;;;;38.17;18.48;;;;;;;;;;5064728;28;20044;-59
2021/03/24 01:53:56;;;;;;;33.53;16.52;;;;;;;;;;5048810;28;20043;-59
2021/03/24 01:56:23;;;;;;;41.67;17.88;;;;;;;;;;5064863;28;20515;-59
2021/03/24 01:58:50;;;;;;;36.75;17.48;;;;;;;;;;5065116;28;20043;-59
2021/03/24 02:01:17;;;;;;;38.85;19.50;;;;;;;;;;5065894;28;20074;-59
2021/03/24 02:03:44;;;;;;;46.63;20.63;;;;;;;;;;5063887;28;20532;-59
2021/03/24 02:06:14;;;;;;;39.17;19.02;;;;;;;;;;5063730;28;20037;-59
2021/03/24 02:08:42;;;;;;;45.95;19.90;;;;;;;;;;5065938;28;20503;-59
2021/03/24 02:11:16;;;;;;;42.35;19.92;;;;;;;;;;5066068;28;20047;-59
2021/03/24 02:13:47;;;;;;;40.65;19.65;;;;;;;;;;5062588;28;20049;-59
2021/03/24 02:16:16;;;;;;;45.15;21.25;;;;;;;;;;5062203;28;20033;-59
2021/03/24 02:18:44;;;;;;;49.75;20.15;;;;;;;;;;5064860;28;20048;-59
2021/03/24 02:21:13;;;;;;;45.85;20.05;;;;;;;;;;5064571;28;20044;-59
2021/03/24 02:23:40;;;;;;;48.15;23.42;;;;;;;;;;5065834;28;20447;-59
2021/03/24 02:26:18;;;;;;;47.20;22.90;;;;;;;;;;5067140;28;20412;-59
2021/03/24 02:28:44;;;;;;;;;;;;;;;;;;5067310;28;20986;-59
2021/03/24 02:31:12;;;;;;;41.53;21.33;;;;;;;;;;5063645;28;19927;-59
2021/03/24 02:33:41;;;;;;;45.33;23.00;;;;;;;;;;5064598;28;20048;-59
2021/03/24 02:36:10;;;;;;;50.00;22.95;;;;;;;;;;5063548;28;20053;-59
2021/03/24 02:38:37;;;;;;;45.70;21.73;;;;;;;;;;5066205;28;20395;-59
2021/03/24 02:41:05;;;;;;;46.30;21.42;;;;;;;;;;5062158;28;20071;-58
2021/03/24 02:43:32;;;;;;;39.90;18.75;;;;;;;;;;5065119;28;20052;-59
2021/03/24 02:45:59;;;;;;;51.22;24.65;;;;;;;;;;5065121;28;20148;-59
2021/03/24 02:48:29;;;;;;;44.63;22.13;;;;;;;;;;5065342;28;20040;-59
2021/03/24 02:50:56;;;;;;;50.55;21.95;;;;;;;;;;5064239;28;20044;-59
2021/03/24 02:53:23;;;;;;;48.63;21.15;;;;;;;;;;5063928;28;20051;-59
2021/03/24 02:55:50;;;;;;;42.25;21.02;;;;;;;;;;5067573;28;20036;-59
2021/03/24 02:58:16;;;;;;;41.30;21.10;;;;;;;;;;5063562;28;20053;-59
2021/03/24 03:00:42;;;;;;;47.33;21.98;;;;;;;;;;5061874;28;20036;-59
2021/03/24 03:03:14;;;;;;;41.50;20.20;;;;;;;;;;5047309;28;20098;-59
2021/03/24 03:05:41;;;;;;;50.05;21.17;;;;;;;;;;5067268;28;20041;-59
2021/03/24 03:08:16;;;;;;;46.13;21.43;;;;;;;;;;5065549;28;20127;-59
2021/03/24 03:10:53;;;;;;;51.55;22.45;;;;;;;;;;5066920;28;20373;-59
2021/03/24 03:13:38;;;;;;;43.00;22.52;;;;;;;;;;5062581;28;20405;-59
2021/03/24 03:16:08;;;;;;;44.15;22.17;;;;;;;;;;5060986;28;20048;-59
2021/03/24 03:18:49;;;;;;;44.13;22.55;;;;;;;;;;5065509;28;20602;-59
2021/03/24 03:21:23;;;;;;;41.22;20.17;;;;;;;;;;5068434;28;20486;-59
2021/03/24 03:23:50;;;;;;;47.28;24.00;;;;;;;;;;5067795;28;20114;-59
2021/03/24 03:26:18;;;;;;;52.13;23.85;;;;;;;;;;5066831;28;20044;-59
2021/03/24 03:28:45;;;;;;;43.80;21.10;;;;;;;;;;5070101;28;20036;-59
2021/03/24 03:31:14;;;;;;;50.45;24.73;;;;;;;;;;5070421;28;20044;-59
2021/03/24 03:33:42;;;;;;;47.70;23.88;;;;;;;;;;5066359;28;20048;-59
2021/03/24 03:36:11;;;;;;;51.22;23.33;;;;;;;;;;5069311;28;20044;-58
2021/03/24 03:38:39;;;;;;;46.83;22.65;;;;;;;;;;5051124;28;20133;-59
2021/03/24 03:41:08;;;;;;;46.40;24.13;;;;;;;;;;5066846;28;20056;-58
2021/03/24 03:43:34;;;;;;;48.33;21.92;;;;;;;;;;5067980;28;20492;-59
2021/03/24 03:46:02;;;;;;;49.28;21.77;;;;;;;;;;5066603;28;20056;-59
2021/03/24 03:48:28;;;;;;;48.05;21.55;;;;;;;;;;5069298;28;20558;-59
2021/03/24 03:51:00;;;;;;;46.90;24.02;;;;;;;;;;5065879;28;20043;-59
2021/03/24 03:53:41;;;;;;;45.08;22.70;;;;;;;;;;5068173;28;20052;-58
2021/03/24 03:56:12;;;;;;;52.70;22.98;;;;;;;;;;5068066;28;20051;-59
2021/03/24 03:58:42;;;;;;;46.85;22.77;;;;;;;;;;5069994;28;20099;-58
2021/03/24 04:01:14;;;;;;;53.85;23.88;;;;;;;;;;5069309;28;20052;-59
2021/03/24 04:03:44;;;;;;;51.83;24.52;;;;;;;;;;5067807;28;20040;-59
2021/03/24 04:06:14;;;;;;;55.20;24.30;;;;;;;;;;5069948;28;20144;-58
2021/03/24 04:08:42;;;;;;;45.08;22.90;;;;;;;;;;5068607;28;20506;-58
2021/03/24 04:11:09;;;;;;;52.20;22.85;;;;;;;;;;5070113;28;20044;-60
2021/03/24 04:13:39;;;;;;;37.72;19.13;;;;;;;;;;5066074;28;20052;-59
2021/03/24 04:16:05;;;;;;;47.83;23.23;;;;;;;;;;5065824;28;20512;-58
2021/03/24 04:18:45;;;;;;;52.25;24.30;;;;;;;;;;5068384;28;20048;-59
2021/03/24 04:21:12;;;;;;;48.33;24.08;;;;;;;;;;5067560;28;20412;-59
2021/03/24 04:23:41;;;;;;;45.53;24.35;;;;;;;;;;5066940;28;20059;-59
2021/03/24 04:26:16;;;;;;;56.80;26.02;;;;;;;;;;5069895;28;20075;-58
2021/03/24 04:28:44;;;;;;;46.70;23.33;;;;;;;;;;5068287;28;20059;-59
2021/03/24 04:31:11;;;;;;;49.05;24.83;;;;;;;;;;5066265;28;20062;-59
2021/03/24 04:33:38;;;;;;;49.75;23.50;;;;;;;;;;5068896;28;20033;-59
2021/03/24 04:36:16;;;;;;;54.60;24.80;;;;;;;;;;5068454;28;20123;-58
2021/03/24 04:38:49;;;;;;;51.90;24.27;;;;;;;;;;5066395;28;20050;-59
2021/03/24 04:41:28;;;;;;;53.85;26.85;;;;;;;;;;5065627;28;20040;-58
2021/03/24 04:44:01;;;;;;;48.55;23.70;;;;;;;;;;5067106;28;20052;-58
2021/03/24 04:46:29;;;;;;;45.72;24.33;;;;;;;;;;5065632;28;20040;-59
2021/03/24 04:49:04;;;;;;;58.40;25.40;;;;;;;;;;5049642;28;20041;-59
2021/03/24 04:51:36;;;;;;;49.13;24.98;;;;;;;;;;5067383;28;20048;-59
2021/03/24 04:54:18;;;;;;;48.97;25.33;;;;;;;;;;5066926;28;20040;-59
2021/03/24 04:56:49;;;;;;;52.40;25.42;;;;;;;;;;5066965;28;20052;-59
2021/03/24 04:59:21;;;;;;;52.90;25.55;;;;;;;;;;5067996;28;20565;-59
2021/03/24 05:01:52;;;;;;;49.00;25.13;;;;;;;;;;5063917;28;20047;-59
2021/03/24 05:04:18;;;;;;;53.42;24.15;;;;;;;;;;5066804;28;20040;-59
2021/03/24 05:06:54;;;;;;;52.10;26.50;;;;;;;;;;5067115;28;20418;-58
2021/03/24 05:09:20;;;;;;;51.47;26.42;;;;;;;;;;5065794;28;20033;-58
2021/03/24 05:12:08;;;;;;;51.80;26.30;;;;;;;;;;5069054;28;20106;-59
2021/03/24 05:14:43;;;;;;;52.90;27.23;;;;;;;;;;5064864;28;20488;-59
2021/03/24 05:17:15;;;;;;;50.13;25.85;;;;;;;;;;5068106;28;20491;-59
2021/03/24 05:19:43;;;;;;;55.47;26.98;;;;;;;;;;5065484;28;20041;-59
2021/03/24 05:22:25;;;;;;;50.63;25.98;;;;;;;;;;5067856;28;20052;-59
2021/03/24 05:24:55;;;;;;;54.00;24.30;;;;;;;;;;5066255;28;20036;-59
2021/03/24 05:27:39;;;;;;;52.90;26.92;;;;;;;;;;5062394;28;20051;-59
2021/03/24 05:30:10;;;;;;;50.35;27.08;;;;;;;;;;5063967;28;20072;-58
2021/03/24 05:32:42;;;;;;;58.65;27.48;;;;;;;;;;5066866;28;20458;-59
2021/03/24 05:35:41;;;;;;;56.40;27.13;;;;;;;;;;5064538;28;20056;-59
2021/03/24 05:38:14;;;;;;;47.50;25.65;;;;;;;;;;5016795;28;20040;-59
2021/03/24 05:40:51;;;;;;;57.55;25.38;;;;;;;;;;5062992;28;20044;-59
2021/03/24 05:43:23;;;;;;;52.38;26.85;;;;;;;;;;5060338;28;20711;-59
2021/03/24 05:45:56;;;;;;;56.05;27.20;;;;;;;;;;5063406;28;20484;-59
2021/03/24 05:48:22;;;;;;;51.33;27.02;;;;;;;;;;5066286;28;20479;-59
2021/03/24 05:51:07;;;;;;;49.38;25.83;;;;;;;;;;5061658;28;20113;-58
2021/03/24 05:53:53;;;;;;;46.63;25.83;;;;;;;;;;5063067;28;20040;-58
2021/03/24 05:56:38;;;;;;;55.55;26.42;;;;;;;;;;5067454;28;20395;-57
2021/03/24 05:59:11;;;;;;;55.90;26.85;;;;;;;;;;5067838;28;20086;-59
2021/03/24 06:01:42;;;;;;;52.45;26.10;;;;;;;;;;5066955;28;20630;-58
2021/03/24 06:04:20;;;;;;;51.92;25.90;;;;;;;;;;5048982;28;20443;-58
2021/03/24 06:07:02;;;;;;;50.33;25.35;;;;;;;;;;5062100;28;20134;-59
2021/03/24 06:09:42;;;;;;;47.75;25.05;;;;;;;;;;5068448;28;20068;-58
2021/03/24 06:12:14;;;;;;;46.33;25.30;;;;;;;;;;5066800;28;20373;-59
2021/03/24 06:14:50;;;;;;;47.35;25.63;;;;;;;;;;5065206;28;20040;-59
2021/03/24 06:17:35;;;;;;;40.40;23.05;;;;;;;;;;5066727;28;20040;-59
2021/03/24 06:20:01;;;;;;;48.53;24.83;;;;;;;;;;5067723;28;20106;-59
2021/03/24 06:22:33;;;;;;;47.17;26.55;;;;;;;;;;5066835;28;20033;-59
2021/03/24 06:25:00;;;;;;;47.42;26.85;;;;;;;;;;5065739;28;20039;-59
2021/03/24 06:27:47;;;;;;;48.38;26.77;;;;;;;;;;5066190;28;20064;-59
2021/03/24 06:30:26;;;;;;;54.55;27.88;;;;;;;;;;5066373;28;20056;-59
2021/03/24 06:33:08;;;;;;;45.10;25.50;;;;;;;;;;5066741;28;20049;-59
2021/03/24 06:35:43;;;;;;;52.97;25.77;;;;;;;;;;5066885;28;20047;-59
2021/03/24 06:38:28;;;;;;;51.50;26.33;;;;;;;;;;5067282;28;20404;-59
2021/03/24 06:41:11;;;;;;;43.17;25.02;;;;;;;;;;5066262;28;20050;-59
2021/03/24 06:43:57;;;;;;;43.42;24.98;;;;;;;;;;5067795;28;20740;-59
2021/03/24 06:46:40;;;;;;;46.33;28.02;;;;;;;;;;5066085;28;20059;-59
2021/03/24 06:49:07;;;;;;;53.88;26.02;;;;;;;;;;5064020;28;20127;-59
2021/03/24 06:51:52;;;;;;;52.88;27.08;;;;;;;;;;5065234;28;20480;-59
2021/03/24 06:54:36;;;;;;;49.28;27.67;;;;;;;;;;5065654;28;20041;-59
2021/03/24 06:57:06;;;;;;;54.15;27.27;;;;;;;;;;5068281;28;20565;-59
2021/03/24 06:59:33;;;;;;;55.35;29.55;;;;;;;;;;5070418;28;20041;-59
2021/03/24 07:02:18;;;;;;;47.55;27.92;;;;;;;;;;5070691;28;20043;-59
2021/03/24 07:04:55;;;;;;;50.78;28.50;;;;;;;;;;5069235;28;20075;-59
2021/03/24 07:07:34;;;;;;;55.05;27.80;;;;;;;;;;5069998;28;20056;-59
2021/03/24 07:10:19;;;;;;;46.67;26.98;;;;;;;;;;5069258;28;20044;-59
2021/03/24 07:12:56;;;;;;;47.67;25.23;;;;;;;;;;5066683;28;20067;-59
2021/03/24 07:15:28;;;;;;;50.38;29.42;;;;;;;;;;5069450;28;20052;-59
2021/03/24 07:18:13;;;;;;;48.58;26.58;;;;;;;;;;5071023;28;20052;-57
2021/03/24 07:20:59;;;;;;;48.05;28.25;;;;;;;;;;5069049;28;20044;-59
2021/03/24 07:23:32;;;;;;;54.92;26.83;;;;;;;;;;5068073;28;20048;-59
2021/03/24 07:26:05;;;;;;;57.78;28.15;;;;;;;;;;5070117;28;20048;-59
2021/03/24 07:28:50;;;;;;;45.25;24.52;;;;;;;;;;5070723;28;20056;-59
2021/03/24 07:31:35;;;;;;;52.42;28.10;;;;;;;;;;5069872;28;20419;-59
2021/03/24 07:34:17;;;;;;;44.53;25.15;;;;;;;;;;5070915;28;20127;-59
2021/03/24 07:37:03;;;;;;;49.30;25.20;;;;;;;;;;5068363;28;20526;-59
2021/03/24 07:39:53;;;;;;;47.38;23.90;;;;;;;;;;5069811;28;20079;-58
2021/03/24 07:42:30;;;;;;;50.35;27.17;;;;;;;;;;5070090;28;20388;-59
2021/03/24 07:44:59;;;;;;;49.33;25.90;;;;;;;;;;5069881;28;20500;-59
2021/03/24 07:47:44;;;;;;;59.35;27.10;;;;;;;;;;5069165;28;20616;-59
2021/03/24 07:50:11;;;;;;;51.95;27.45;;;;;;;;;;5069123;28;20067;-59
2021/03/24 07:52:38;;;;;;;;;;;;;;;;;;5069302;28;20044;-59
2021/03/24 07:55:20;;;;;;;58.85;27.48;;;;;;;;;;5067616;28;19920;-59
2021/03/24 07:58:03;;;;;;;53.45;26.85;;;;;;;;;;5068370;28;20044;-59
2021/03/24 08:00:29;;;;;;;54.22;27.00;;;;;;;;;;5068641;28;20519;-59
2021/03/24 08:03:13;;;;;;;59.53;28.90;;;;;;;;;;5070021;28;20053;-59
2021/03/24 08:05:45;;;;;;;54.28;26.52;;;;;;;;;;5066293;28;20036;-59
2021/03/24 08:08:17;;;;;;;53.80;27.35;;;;;;;;;;5071716;28;20037;-59
2021/03/24 08:10:49;;;;;;;64.20;26.30;;;;;;;;;;5053200;28;20040;-59
2021/03/24 08:13:27;;;;;;;59.05;28.13;;;;;;;;;;5062500;28;20454;-59
2021/03/24 08:15:56;;;;;;;60.42;26.60;;;;;;;;;;5066710;28;20048;-59
2021/03/24 08:18:26;;;;;;;57.50;26.67;;;;;;;;;;5061144;28;20040;-59
2021/03/24 08:21:00;;;;;;;52.60;25.48;;;;;;;;;;5057019;28;20040;-59
2021/03/24 08:23:27;;;;;;;59.53;27.80;;;;;;;;;;5063220;28;20053;-59
2021/03/24 08:26:03;;;;;;;62.28;28.42;;;;;;;;;;5065939;28;20139;-59
2021/03/24 08:28:46;;;;;;;60.78;27.13;;;;;;;;;;5037816;28;20099;-59
2021/03/24 08:31:14;;;;;;;56.78;27.17;;;;;;;;;;5042054;28;20397;-59
2021/03/24 08:33:40;;;;;;;56.53;25.25;;;;;;;;;;5050890;28;20164;-59
2021/03/24 08:36:19;;;;;;;63.30;27.83;;;;;;;;;;5049816;28;20044;-59
2021/03/24 08:38:58;;;;;;;57.70;25.90;;;;;;;;;;5048608;28;20044;-59
2021/03/24 08:41:43;;;;;;;56.55;26.77;;;;;;;;;;5049129;28;20057;-59
2021/03/24 08:44:09;;;;;;;57.53;25.75;;;;;;;;;;5049428;28;20511;-59
2021/03/24 08:46:41;;;;;;;56.42;26.50;;;;;;;;;;5048705;28;20052;-59
2021/03/24 08:49:16;;;;;;;61.03;26.20;;;;;;;;;;5051051;28;20033;-59
2021/03/24 08:51:53;;;;;;;56.45;27.80;;;;;;;;;;5040970;28;20052;-59
2021/03/24 08:54:20;;;;;;;56.95;28.08;;;;;;;;;;5049293;28;20201;-60
2021/03/24 08:56:50;;;;;;;55.00;26.45;;;;;;;;;;5050059;28;20436;-59
2021/03/24 08:59:36;;;;;;;58.30;27.08;;;;;;;;;;5049798;28;20498;-60
2021/03/24 09:02:22;;;;;;;59.22;26.45;;;;;;;;;;5048441;28;20498;-59
2021/03/24 09:05:05;;;;;;;59.17;27.95;;;;;;;;;;5049843;28;20045;-59
2021/03/24 09:07:37;;;;;;;56.55;26.75;;;;;;;;;;5050011;28;20045;-59
2021/03/24 09:10:12;;;;;;;56.88;25.58;;;;;;;;;;5048226;28;20550;-59
2021/03/24 09:12:42;;;;;;;50.85;24.52;;;;;;;;;;5042106;28;20416;-59
2021/03/24 09:15:12;;;;;;;58.17;25.98;;;;;;;;;;5050119;28;20040;-59
2021/03/24 09:17:48;;;;;;;56.63;26.52;;;;;;;;;;5045563;28;20042;-59
2021/03/24 09:20:29;;;;;;;55.70;26.23;;;;;;;;;;5047773;28;20053;-59
2021/03/24 09:22:58;;;;;;;55.28;26.25;;;;;;;;;;5047923;28;20061;-59
2021/03/24 09:25:28;;;;;;;52.13;27.15;;;;;;;;;;5048915;28;20044;-59
2021/03/24 09:28:03;;;;;;;54.33;26.38;;;;;;;;;;5064061;28;21411;-59
2021/03/24 09:30:39;;;;;;;57.80;26.85;;;;;;;;;;5065347;28;20066;-59
2021/03/24 09:33:05;;;;;;;52.15;26.05;;;;;;;;;;5069562;28;20044;-59
2021/03/24 09:35:46;;;;;;;59.83;26.27;;;;;;;;;;5069170;28;20393;-59
2021/03/24 09:38:17;;;;;;;58.53;26.30;;;;;;;;;;5069040;28;20059;-59
2021/03/24 09:41:07;;;;;;;49.50;26.23;;;;;;;;;;5067395;28;20051;-59
2021/03/24 09:43:37;;;;;;;64.90;26.98;;;;;;;;;;5055659;28;20114;-60
2021/03/24 09:46:05;;;;;;;64.53;25.67;;;;;;;;;;5059177;28;20374;-59
2021/03/24 09:48:48;;;;;;;65.97;28.38;;;;;;;;;;5067463;28;20082;-59
2021/03/24 09:51:16;;;;;;;62.63;26.25;;;;;;;;;;5069568;28;20064;-59
2021/03/24 09:53:43;;;;;;;;;;;;;;;;;;5068857;28;20119;-60
2021/03/24 09:56:35;;;;;;;58.63;25.77;;;;;;;;;;5069020;28;20330;-59
2021/03/24 09:59:43;;;;;;;58.78;26.90;;;;;;;;;;5069480;28;20044;-59
2021/03/24 10:02:15;;;;;;;52.00;24.80;;;;;;;;;;5065057;28;20569;-60
2021/03/24 10:04:45;;;;;;;56.80;25.80;;;;;;;;;;5067307;28;20074;-59
2021/03/24 10:07:23;;;;;;;57.78;25.33;;;;;;;;;;5059935;28;20171;-59
2021/03/24 10:09:58;;;;;;;57.75;27.25;;;;;;;;;;5068164;28;20036;-59
2021/03/24 10:12:35;;;;;;;59.47;27.35;;;;;;;;;;5068321;28;20563;-59
2021/03/24 10:15:11;;;;;;;53.92;26.75;;;;;;;;;;5067198;28;20044;-60
2021/03/24 10:17:40;;;;;;;47.17;24.48;;;;;;;;;;5069735;28;20048;-59
2021/03/24 10:20:13;;;;;;;61.08;25.98;;;;;;;;;;5066909;28;20415;-59
2021/03/24 10:22:51;;;;;;;53.15;25.85;;;;;;;;;;5068074;28;20537;-60
2021/03/24 10:25:24;;;;;;;47.30;24.15;;;;;;;;;;5066623;28;20105;-60
2021/03/24 10:27:53;;;;;;;55.25;26.48;;;;;;;;;;5052545;28;20680;-59
2021/03/24 10:30:29;;;;;;;53.08;25.30;;;;;;;;;;5051103;28;20037;-59
2021/03/24 10:32:59;;;;;;;56.55;24.08;;;;;;;;;;5052758;28;20045;-59
2021/03/24 10:35:35;;;;;;;52.80;26.30;;;;;;;;;;5052260;28;20080;-59
2021/03/24 10:38:10;;;;;;;51.47;26.52;;;;;;;;;;5051323;28;20049;-59
2021/03/24 10:40:39;;;;;;;49.22;21.05;;;;;;;;;;5052978;28;20049;-59
2021/03/24 10:43:12;;;;;;;62.20;23.80;;;;;;;;;;5052699;28;20065;-59
2021/03/24 10:45:44;;;;;;;53.30;23.95;;;;;;;;;;5051886;28;20045;-59
2021/03/24 10:48:16;;;;;;;56.00;24.25;;;;;;;;;;5051537;28;20037;-59
2021/03/24 10:50:49;;;;;;;50.65;22.08;;;;;;;;;;5052747;28;20067;-59
2021/03/24 10:53:25;;;;;;;57.60;23.42;;;;;;;;;;5051583;28;20029;-59
2021/03/24 10:56:09;;;;;;;51.15;22.50;;;;;;;;;;5052425;28;20633;-59
2021/03/24 10:58:43;;;;;;;54.05;22.50;;;;;;;;;;5052929;28;20133;-60
2021/03/24 11:01:13;;;;;;;50.08;22.95;;;;;;;;;;5050257;28;20041;-59
2021/03/24 11:03:57;;;;;;;48.25;22.63;;;;;;;;;;5051408;28;20091;-59
2021/03/24 11:06:30;;;;;;;53.40;22.23;;;;;;;;;;5052329;28;20057;-59
2021/03/24 11:09:07;;;;;;;53.08;24.33;;;;;;;;;;5052527;28;20041;-59
2021/03/24 11:11:40;;;;;;;52.60;24.08;;;;;;;;;;5033130;28;20056;-60
2021/03/24 11:14:11;;;;;;;54.22;24.05;;;;;;;;;;5051740;28;20041;-59
2021/03/24 11:16:39;;;;;;;62.88;26.40;;;;;;;;;;5051318;28;20064;-60
2021/03/24 11:19:11;;;;;;;54.67;25.98;;;;;;;;;;5051243;28;20052;-59
2021/03/24 11:21:43;;;;;;;59.15;26.73;;;;;;;;;;5051450;28;20099;-59
2021/03/24 11:24:13;;;;;;;58.45;26.10;;;;;;;;;;5049634;28;20041;-60
2021/03/24 11:26:45;;;;;;;59.80;27.63;;;;;;;;;;5057242;28;20162;-59
2021/03/24 11:29:13;;;;;;;54.90;27.02;;;;;;;;;;5069807;28;20044;-59
2021/03/24 11:31:58;;;;;;;61.10;27.90;;;;;;;;;;5069585;28;20033;-59
2021/03/24 11:34:43;;;;;;;57.35;25.73;;;;;;;;;;5067893;28;20041;-59
2021/03/24 11:37:28;;;;;;;63.05;26.70;;;;;;;;;;5070011;28;20051;-59
2021/03/24 11:40:03;;;;;;;67.53;26.00;;;;;;;;;;5067359;28;20106;-59
2021/03/24 11:42:31;;;;;;;65.47;26.90;;;;;;;;;;5069661;28;20040;-59
2021/03/24 11:44:58;;;;;;;61.05;28.00;;;;;;;;;;5070109;28;20133;-59
2021/03/24 11:47:42;;;;;;;65.95;27.63;;;;;;;;;;5069180;28;20055;-59
2021/03/24 11:50:24;;;;;;;68.43;26.67;;;;;;;;;;5070386;28;20049;-60
2021/03/24 11:52:58;;;;;;;69.53;27.90;;;;;;;;;;5064141;28;20812;-59
2021/03/24 11:55:43;;;;;;;66.72;26.92;;;;;;;;;;5067680;28;20052;-59
2021/03/24 11:58:19;;;;;;;60.28;27.60;;;;;;;;;;5069816;28;20094;-59
2021/03/24 12:01:14;;;;;;;72.23;28.13;;;;;;;;;;5067969;28;20037;-60
2021/03/24 12:03:59;;;;;;;68.28;28.17;;;;;;;;;;5066514;28;20055;-59
2021/03/24 12:06:44;;;;;;;63.20;30.00;;;;;;;;;;5069637;28;20052;-59
2021/03/24 12:09:21;;;;;;;65.82;27.10;;;;;;;;;;5069653;28;20040;-59
2021/03/24 12:11:48;;;;;;;76.15;28.20;;;;;;;;;;5070488;28;20048;-59
2021/03/24 12:14:14;;;;;;;80.57;31.95;;;;;;;;;;5069791;28;20159;-60
2021/03/24 12:16:46;;;;;;;72.22;29.77;;;;;;;;;;5068319;28;20053;-59
2021/03/24 12:19:31;;;;;;;74.32;28.70;;;;;;;;;;5068823;28;20116;-59
2021/03/24 12:22:00;;;;;;;70.47;29.83;;;;;;;;;;5069983;28;20044;-60
2021/03/24 12:24:29;;;;;;;79.93;30.13;;;;;;;;;;5068220;28;20045;-59
2021/03/24 12:27:06;;;;;;;67.15;30.67;;;;;;;;;;5068543;28;20098;-60
2021/03/24 12:29:33;;;;;;;73.15;31.13;;;;;;;;;;5068716;28;20040;-60
2021/03/24 12:32:01;;;;;;;73.23;30.53;;;;;;;;;;5069821;28;20067;-59
2021/03/24 12:34:29;;;;;;;77.50;30.88;;;;;;;;;;5068944;28;20040;-60
2021/03/24 12:36:55;;;;;;;;;;;;;;;;;;5067256;28;20519;-60
2021/03/24 12:39:25;;;;;;;80.95;31.33;;;;;;;;;;5067225;28;19928;-59
2021/03/24 12:41:52;;;;;;;76.63;31.05;;;;;;;;;;5068989;28;20044;-59
2021/03/24 12:44:21;;;;;;;71.85;32.50;;;;;;;;;;5069243;28;20052;-59
2021/03/24 12:46:49;;;;;;;76.72;32.45;;;;;;;;;;5066965;28;20052;-60
2021/03/24 12:49:18;;;;;;;81.78;33.53;;;;;;;;;;5068281;28;20544;-59
2021/03/24 12:51:47;;;;;;;82.25;34.10;;;;;;;;;;5067005;28;20415;-59
2021/03/24 12:54:14;;;;;;;77.78;33.22;;;;;;;;;;5065805;28;20040;-59
2021/03/24 12:56:46;;;;;;;82.97;35.08;;;;;;;;;;5066891;28;20101;-59
2021/03/24 12:59:18;;;;;;;74.72;34.70;;;;;;;;;;5067706;28;20047;-59
2021/03/24 13:02:20;;;;;;;77.15;35.30;;;;;;;;;;5069268;28;20049;-60
2021/03/24 13:04:49;;;;;;;81.80;34.25;;;;;;;;;;5006839;28;20509;-59
2021/03/24 13:07:36;;;;;;;69.70;33.58;;;;;;;;;;5054491;28;20070;-60
2021/03/24 13:10:24;;;;;;;75.77;35.03;;;;;;;;;;5066320;28;20036;-59
2021/03/24 13:13:12;;;;;;;74.32;34.47;;;;;;;;;;5068808;28;20152;-59
2021/03/24 13:15:59;;;;;;;84.05;36.03;;;;;;;;;;5067582;28;20110;-59
2021/03/24 13:18:38;;;;;;;81.68;36.35;;;;;;;;;;5068016;28;20048;-59
2021/03/24 13:21:14;;;;;;;86.88;38.55;;;;;;;;;;5066217;28;20094;-59
2021/03/24 13:23:51;;;;;;;77.82;37.55;;;;;;;;;;5067206;28;20052;-59
2021/03/24 13:26:23;;;;;;;85.68;36.95;;;;;;;;;;5067627;28;20059;-60
2021/03/24 13:28:59;;;;;;;83.95;37.15;;;;;;;;;;5066210;28;20480;-59
2021/03/24 13:31:28;;;;;;;84.22;39.78;;;;;;;;;;5065427;28;20122;-59
2021/03/24 13:34:02;;;;;;;83.97;36.83;;;;;;;;;;5067004;28;20040;-60
2021/03/24 13:36:35;;;;;;;91.22;39.30;;;;;;;;;;5066883;28;20048;-60
2021/03/24 13:39:13;;;;;;;78.15;38.90;;;;;;;;;;5067653;28;20095;-59
2021/03/24 13:41:45;;;;;;;94.40;40.45;;;;;;;;;;5067557;28;20059;-59
2021/03/24 13:44:18;;;;;;;90.90;40.92;;;;;;;;;;5068014;28;20048;-60
2021/03/24 13:46:52;;;;;;;94.80;42.13;;;;;;;;;;5066154;28;20081;-60
2021/03/24 13:49:31;;;;;;;104.97;42.13;;;;;;;;;;5066756;28;20048;-60
2021/03/24 13:52:16;;;;;;;87.15;40.60;;;;;;;;;;5066625;28;20542;-60
2021/03/24 13:55:06;;;;;;;83.72;38.47;;;;;;;;;;5066730;28;20562;-60
2021/03/24 13:57:49;;;;;;;95.57;40.33;;;;;;;;;;5030675;28;20048;-60
2021/03/24 14:00:15;;;;;;;69.13;37.13;;;;;;;;;;5066885;28;20579;-60
2021/03/24 14:02:53;;;;;;;80.90;35.03;;;;;;;;;;5066772;28;20040;-60
2021/03/24 14:05:26;;;;;;;89.43;36.47;;;;;;;;;;5066850;28;20482;-60
2021/03/24 14:07:58;;;;;;;76.85;36.25;;;;;;;;;;5067264;28;20048;-60
2021/03/24 14:10:25;;;;;;;77.25;35.95;;;;;;;;;;5068110;28;20472;-60
2021/03/24 14:13:09;;;;;;;84.45;36.80;;;;;;;;;;5067933;28;20040;-60
2021/03/24 14:15:40;;;;;;;104.07;39.60;;;;;;;;;;5065012;28;20381;-60
2021/03/24 14:18:18;;;;;;;90.82;37.55;;;;;;;;;;5065657;28;20032;-60
2021/03/24 14:20:48;;;;;;;84.47;37.60;;;;;;;;;;5066706;28;20399;-60
2021/03/24 14:23:35;;;;;;;84.47;37.85;;;;;;;;;;5066367;28;20044;-59
2021/03/24 14:26:05;;;;;;;82.68;37.40;;;;;;;;;;5066761;28;20044;-60
2021/03/24 14:28:32;;;;;;;78.32;36.55;;;;;;;;;;5068397;28;20416;-60
2021/03/24 14:31:17;;;;;;;80.57;37.80;;;;;;;;;;5066378;28;20106;-60
2021/03/24 14:33:48;;;;;;;83.47;37.80;;;;;;;;;;5065655;28;20037;-60
2021/03/24 14:36:18;;;;;;;89.22;37.80;;;;;;;;;;5066363;28;20049;-59
2021/03/24 14:39:03;;;;;;;83.30;38.28;;;;;;;;;;5064357;28;20052;-60
2021/03/24 14:41:38;;;;;;;79.15;36.63;;;;;;;;;;5065417;28;20053;-60
2021/03/24 14:44:04;;;;;;;91.65;37.45;;;;;;;;;;5062782;28;20044;-60
2021/03/24 14:46:33;;;;;;;71.97;36.33;;;;;;;;;;5064516;28;20041;-60
2021/03/24 14:49:04;;;;;;;74.00;34.83;;;;;;;;;;5062960;28;20086;-59
2021/03/24 14:51:31;;;;;;;82.22;38.45;;;;;;;;;;5065958;28;20056;-60
2021/03/24 14:54:09;;;;;;;82.78;39.28;;;;;;;;;;5065514;28;20685;-60